createdAt,value
2023-05-02T00:02:17.959Z,75.84
2023-05-02T00:04:44.897Z,75.81
2023-05-02T00:07:11.958Z,75.98
2023-05-02T00:09:38.849Z,75.56
2023-05-02T00:12:05.825Z,75.82
2023-05-02T00:14:33.005Z,76.03
2023-05-02T00:16:59.911Z,75.66
2023-05-02T00:19:26.922Z,77.57
2023-05-02T00:21:53.729Z,77.42
2023-05-02T00:24:20.572Z,76.87
2023-05-02T00:26:47.515Z,76.23
2023-05-02T00:29:14.296Z,76.53
2023-05-02T00:31:42.137Z,76.59
2023-05-02T00:34:09.082Z,76.60
2023-05-02T00:36:35.979Z,75.87
2023-05-02T00:39:02.791Z,76.11
2023-05-02T00:41:29.675Z,75.58
2023-05-02T00:43:56.838Z,76.26
2023-05-02T00:46:23.880Z,76.15
2023-05-02T00:48:51.186Z,76.08
2023-05-02T00:51:18.280Z,75.78
2023-05-02T00:53:45.436Z,75.88
2023-05-02T00:56:12.227Z,75.99
2023-05-02T00:58:41.111Z,76.95
2023-05-02T01:01:27.027Z,76.75
2023-05-02T01:04:27.882Z,76.35
2023-05-02T01:07:28.169Z,76.94
2023-05-02T01:10:37.917Z,76.41
2023-05-02T01:13:10.393Z,76.30
2023-05-02T01:15:41.261Z,76.11
2023-05-02T01:18:12.178Z,75.74
2023-05-02T01:20:43.710Z,75.58
2023-05-02T01:24:07.096Z,75.41
2023-05-02T01:26:59.048Z,75.87
2023-05-02T01:29:29.673Z,76.18
2023-05-02T01:31:58.628Z,76.07
2023-05-02T01:34:27.816Z,75.83
2023-05-02T01:36:56.655Z,76.16
2023-05-02T01:39:26.175Z,75.74
2023-05-02T01:41:58.441Z,75.67
2023-05-02T01:44:27.557Z,75.86
2023-05-02T01:46:56.423Z,75.67
2023-05-02T01:49:25.437Z,75.73
2023-05-02T01:51:52.947Z,76.39
2023-05-02T01:54:23.563Z,75.76
2023-05-02T01:56:52.376Z,75.57
2023-05-02T01:59:23.183Z,75.26
2023-05-02T02:01:51.961Z,75.10
2023-05-02T02:04:21.900Z,74.99
2023-05-02T02:07:00.893Z,75.82
2023-05-02T02:09:27.774Z,75.83
2023-05-02T02:12:06.397Z,75.24
2023-05-02T02:14:59.737Z,75.39
2023-05-02T02:17:37.852Z,75.39
2023-05-02T02:20:09.882Z,75.47
2023-05-02T02:22:39.846Z,75.51
2023-05-02T02:25:12.322Z,75.44
2023-05-02T02:27:41.261Z,75.43
2023-05-02T02:30:12.029Z,75.69
2023-05-02T02:32:38.955Z,75.55
2023-05-02T02:35:07.178Z,75.51
2023-05-02T02:37:42.195Z,75.32
2023-05-02T02:40:21.213Z,75.50
2023-05-02T02:43:15.454Z,75.52
2023-05-02T02:46:15.336Z,75.49
2023-05-02T02:49:01.286Z,76.07
2023-05-02T02:51:38.987Z,75.65
2023-05-02T02:54:26.841Z,75.97
2023-05-02T02:57:07.896Z,76.39
2023-05-02T02:59:42.492Z,76.07
2023-05-02T03:02:13.257Z,75.62
2023-05-02T03:04:43.605Z,75.70
2023-05-02T03:07:10.745Z,75.46
2023-05-02T03:09:45.638Z,75.43
2023-05-02T03:12:13.208Z,76.24
2023-05-02T03:14:41.019Z,75.45
2023-05-02T03:17:10.743Z,75.54
2023-05-02T03:19:37.571Z,75.35
2023-05-02T03:22:05.835Z,75.72
2023-05-02T03:24:32.715Z,75.43
2023-05-02T03:26:59.995Z,75.52
2023-05-02T03:29:27.068Z,75.27
2023-05-02T03:31:53.884Z,75.55
2023-05-02T03:34:22.152Z,75.68
2023-05-02T03:36:49.287Z,75.37
2023-05-02T03:39:16.262Z,75.49
2023-05-02T03:41:43.914Z,75.60
2023-05-02T03:44:11.037Z,75.55
2023-05-02T03:46:38.199Z,75.51
2023-05-02T03:49:05.294Z,75.53
2023-05-02T03:51:33.897Z,75.55
2023-05-02T03:54:02.742Z,75.27
2023-05-02T03:56:29.740Z,75.20
2023-05-02T03:58:56.692Z,75.32
2023-05-02T04:01:23.658Z,75.11
2023-05-02T04:03:52.379Z,75.50
2023-05-02T04:06:19.334Z,75.23
2023-05-02T04:08:46.319Z,75.51
2023-05-02T04:11:13.126Z,75.44
2023-05-02T04:13:40.045Z,75.37
2023-05-02T04:16:07.105Z,75.65
2023-05-02T04:18:34.007Z,75.54
2023-05-02T04:21:00.836Z,75.65
2023-05-02T04:23:27.752Z,75.50
2023-05-02T04:25:56.221Z,75.80
2023-05-02T04:28:23.332Z,76.28
2023-05-02T04:30:50.606Z,75.90
2023-05-02T04:33:18.578Z,75.99
2023-05-02T04:35:46.082Z,76.36
2023-05-02T04:38:13.098Z,75.81
2023-05-02T04:40:40.175Z,75.28
2023-05-02T04:43:07.513Z,75.73
2023-05-02T04:45:37.238Z,75.71
2023-05-02T04:48:05.110Z,75.46
2023-05-02T04:50:32.342Z,75.61
2023-05-02T04:52:59.539Z,75.07
2023-05-02T04:55:26.455Z,74.82
2023-05-02T04:57:53.425Z,74.76
2023-05-02T05:00:20.731Z,75.01
2023-05-02T05:02:47.728Z,75.03
2023-05-02T05:05:15.918Z,74.11
2023-05-02T05:07:43.432Z,74.04
2023-05-02T05:10:11.457Z,73.56
2023-05-02T05:12:38.320Z,73.38
2023-05-02T05:15:05.749Z,74.43
2023-05-02T05:17:32.756Z,73.47
2023-05-02T05:19:59.864Z,74.20
2023-05-02T05:22:27.055Z,74.11
2023-05-02T05:24:54.912Z,73.99
2023-05-02T05:27:22.061Z,74.29
2023-05-02T05:29:48.908Z,73.95
2023-05-02T05:32:15.786Z,73.25
2023-05-02T05:34:42.796Z,73.62
2023-05-02T05:37:09.704Z,73.51
2023-05-02T05:39:36.540Z,73.11
2023-05-02T05:42:03.692Z,73.13
2023-05-02T05:44:31.597Z,73.03
2023-05-02T05:46:58.526Z,73.09
2023-05-02T05:49:25.405Z,72.64
2023-05-02T05:51:52.324Z,72.92
2023-05-02T05:54:19.171Z,71.50
2023-05-02T05:56:46.263Z,72.23
2023-05-02T05:59:13.550Z,71.74
2023-05-02T06:01:41.089Z,70.32
2023-05-02T06:04:08.032Z,70.71
2023-05-02T06:06:35.314Z,70.53
2023-05-02T06:09:02.561Z,68.25
2023-05-02T06:11:29.669Z,69.85
2023-05-02T06:13:56.452Z,69.81
2023-05-02T06:16:23.422Z,69.63
2023-05-02T06:18:52.807Z,69.58
2023-05-02T06:21:19.733Z,68.22
2023-05-02T06:23:46.806Z,68.67
2023-05-02T06:26:13.740Z,68.07
2023-05-02T06:28:40.583Z,68.64
2023-05-02T06:31:07.546Z,68.97
2023-05-02T06:33:35.391Z,68.66
2023-05-02T06:36:02.956Z,67.48
2023-05-02T06:38:30.014Z,69.30
2023-05-02T06:40:56.848Z,68.55
2023-05-02T06:43:23.795Z,66.96
2023-05-02T06:45:54.589Z,67.52
2023-05-02T06:48:21.876Z,66.67
2023-05-02T06:50:49.564Z,65.34
2023-05-02T06:53:16.433Z,66.16
2023-05-02T06:55:44.968Z,64.86
2023-05-02T06:58:11.934Z,65.04
2023-05-02T07:00:38.783Z,63.05
2023-05-02T07:03:05.696Z,65.48
2023-05-02T07:05:32.568Z,66.59
2023-05-02T07:07:59.637Z,67.50
2023-05-02T07:10:26.563Z,64.86
2023-05-02T07:12:53.649Z,65.13
2023-05-02T07:15:20.522Z,66.34
2023-05-02T07:17:47.822Z,66.34
2023-05-02T07:20:15.637Z,65.24
2023-05-02T07:22:43.115Z,64.06
2023-05-02T07:25:10.856Z,64.73
2023-05-02T07:27:37.784Z,63.41
2023-05-02T07:30:06.548Z,62.87
2023-05-02T07:32:33.458Z,62.05
2023-05-02T07:35:00.437Z,62.42
2023-05-02T07:37:27.395Z,62.36
2023-05-02T07:39:54.266Z,61.83
2023-05-02T07:42:21.058Z,63.01
2023-05-02T07:44:47.929Z,64.24
2023-05-02T07:47:14.753Z,62.75
2023-05-02T07:49:41.648Z,62.00
2023-05-02T07:52:08.510Z,60.68
2023-05-02T07:54:35.768Z,61.85
2023-05-02T07:57:03.540Z,60.05
2023-05-02T07:59:31.969Z,62.15
2023-05-02T08:01:58.936Z,61.38
2023-05-02T08:04:26.283Z,62.56
2023-05-02T08:06:53.421Z,60.64
2023-05-02T08:09:20.476Z,60.77
2023-05-02T08:11:47.589Z,59.53
2023-05-02T08:14:16.225Z,58.82
2023-05-02T08:16:46.076Z,58.97
2023-05-02T08:19:13.497Z,58.63
2023-05-02T08:21:40.466Z,58.84
2023-05-02T08:24:07.308Z,58.39
2023-05-02T08:26:34.170Z,59.48
2023-05-02T08:29:01.197Z,58.05
2023-05-02T08:31:28.088Z,57.77
2023-05-02T08:33:54.913Z,57.11
2023-05-02T08:36:21.970Z,57.59
2023-05-02T08:38:49.543Z,56.32
2023-05-02T08:41:18.931Z,57.75
2023-05-02T08:43:47.127Z,57.26
2023-05-02T08:46:17.284Z,56.09
2023-05-02T08:48:48.050Z,56.13
2023-05-02T08:51:17.347Z,57.85
2023-05-02T08:53:45.039Z,58.69
2023-05-02T08:56:13.063Z,58.22
2023-05-02T08:58:41.237Z,58.30
2023-05-02T09:01:17.256Z,55.88
2023-05-02T09:03:46.609Z,56.10
2023-05-02T09:06:22.112Z,58.76
2023-05-02T09:08:52.306Z,60.92
2023-05-02T09:11:20.117Z,59.00
2023-05-02T09:13:52.208Z,58.92
2023-05-02T09:16:25.922Z,59.16
2023-05-02T09:18:55.927Z,58.61
2023-05-02T09:21:39.945Z,58.52
2023-05-02T09:24:21.813Z,58.60
2023-05-02T09:27:02.885Z,58.78
2023-05-02T09:29:35.914Z,58.90
2023-05-02T09:32:05.803Z,59.41
2023-05-02T09:34:34.041Z,58.84
2023-05-02T09:37:01.536Z,58.97
2023-05-02T09:39:29.559Z,59.06
2023-05-02T09:41:57.983Z,57.87
2023-05-02T09:44:27.812Z,58.48
2023-05-02T09:46:57.419Z,58.98
2023-05-02T09:49:45.505Z,58.83
2023-05-02T09:52:18.330Z,58.77
2023-05-02T09:54:52.708Z,57.79
2023-05-02T09:57:19.928Z,58.39
2023-05-02T09:59:58.228Z,58.66
2023-05-02T10:02:25.820Z,59.20
2023-05-02T10:04:57.024Z,60.13
2023-05-02T10:07:25.169Z,58.97
2023-05-02T10:09:55.379Z,58.09
2023-05-02T10:12:25.970Z,58.09
2023-05-02T10:15:01.230Z,58.37
2023-05-02T10:17:32.061Z,57.73
2023-05-02T10:20:06.485Z,58.79
2023-05-02T10:22:37.152Z,58.57
2023-05-02T10:25:05.033Z,58.83
2023-05-02T10:27:32.873Z,58.95
2023-05-02T10:30:00.992Z,58.02
2023-05-02T10:32:34.698Z,58.72
2023-05-02T10:35:06.883Z,57.22
2023-05-02T10:37:36.704Z,56.21
2023-05-02T10:40:05.894Z,55.68
2023-05-02T10:42:39.367Z,55.44
2023-05-02T10:45:36.983Z,53.55
2023-05-02T10:48:27.433Z,53.40
2023-05-02T10:51:01.829Z,54.60
2023-05-02T10:53:37.040Z,54.07
2023-05-02T10:56:21.147Z,52.48
2023-05-02T10:58:50.327Z,52.07
2023-05-02T11:01:29.418Z,52.49
2023-05-02T11:04:01.683Z,52.60
2023-05-02T11:06:30.945Z,52.77
2023-05-02T11:09:16.124Z,53.29
2023-05-02T11:11:45.023Z,53.31
2023-05-02T11:14:38.239Z,52.26
2023-05-02T11:17:05.038Z,50.96
2023-05-02T11:19:37.841Z,51.89
2023-05-02T11:22:20.550Z,52.00
2023-05-02T11:24:49.133Z,52.12
2023-05-02T11:27:39.141Z,51.10
2023-05-02T11:30:10.690Z,50.92
2023-05-02T11:32:47.640Z,50.20
2023-05-02T11:35:24.841Z,49.53
2023-05-02T11:38:03.278Z,48.05
2023-05-02T11:40:31.676Z,47.92
2023-05-02T11:43:00.522Z,48.07
2023-05-02T11:45:37.174Z,45.52
2023-05-02T11:48:08.570Z,44.62
2023-05-02T11:50:49.620Z,44.33
2023-05-02T11:53:23.113Z,44.21
2023-05-02T11:55:56.016Z,42.85
2023-05-02T11:58:25.678Z,42.20
2023-05-02T12:00:53.898Z,43.14
2023-05-02T12:03:31.686Z,43.64
2023-05-02T12:06:12.898Z,43.71
2023-05-02T12:08:43.842Z,44.78
2023-05-02T12:11:15.544Z,45.55
2023-05-02T12:13:50.632Z,46.22
2023-05-02T12:16:18.720Z,46.61
2023-05-02T12:18:47.248Z,48.07
2023-05-02T12:21:14.371Z,47.24
2023-05-02T12:23:42.455Z,48.37
2023-05-02T12:26:25.089Z,49.21
2023-05-02T12:28:54.671Z,49.82
2023-05-02T12:31:22.517Z,49.83
2023-05-02T12:33:51.755Z,51.92
2023-05-02T12:36:19.785Z,48.48
2023-05-02T12:38:57.052Z,48.81
2023-05-02T12:41:39.406Z,50.64
2023-05-02T12:44:10.036Z,50.84
2023-05-02T12:46:37.010Z,52.90
2023-05-02T12:49:09.261Z,56.73
2023-05-02T12:51:36.807Z,57.97
2023-05-02T12:54:04.774Z,59.56
2023-05-02T12:56:40.018Z,60.25
2023-05-02T12:59:07.886Z,61.68
2023-05-02T13:01:35.476Z,61.55
2023-05-02T13:04:02.730Z,62.45
2023-05-02T13:06:29.823Z,61.95
2023-05-02T13:08:57.043Z,60.10
2023-05-02T13:11:24.193Z,61.09
2023-05-02T13:13:51.193Z,60.01
2023-05-02T13:16:18.454Z,60.92
2023-05-02T13:18:47.202Z,65.25
2023-05-02T13:21:14.733Z,66.10
2023-05-02T13:23:41.574Z,66.08
2023-05-02T13:26:08.965Z,65.34
2023-05-02T13:28:37.418Z,66.40
2023-05-02T13:31:04.554Z,67.44
2023-05-02T13:33:31.450Z,66.95
2023-05-02T13:35:58.314Z,65.74
2023-05-02T13:38:25.610Z,65.71
2023-05-02T13:40:54.163Z,66.05
2023-05-02T13:43:21.123Z,65.96
2023-05-02T13:45:48.932Z,64.99
2023-05-02T13:48:16.247Z,64.66
2023-05-02T13:50:43.326Z,65.25
2023-05-02T13:53:11.251Z,65.03
2023-05-02T13:55:38.209Z,64.42
2023-05-02T13:58:05.801Z,64.67
2023-05-02T14:00:32.917Z,64.65
2023-05-02T14:02:59.824Z,63.77
2023-05-02T14:05:26.788Z,63.69
2023-05-02T14:07:53.616Z,64.49
2023-05-02T14:10:20.456Z,64.42
2023-05-02T14:12:47.761Z,63.94
2023-05-02T14:15:14.771Z,63.81
2023-05-02T14:17:41.721Z,62.81
2023-05-02T14:20:10.491Z,62.37
2023-05-02T14:22:37.522Z,62.91
2023-05-02T14:25:05.838Z,62.76
2023-05-02T14:27:32.750Z,61.94
2023-05-02T14:29:59.575Z,61.91
2023-05-02T14:32:26.815Z,61.47
2023-05-02T14:34:53.713Z,59.30
2023-05-02T14:37:20.519Z,58.93
2023-05-02T14:39:51.138Z,58.93
2023-05-02T14:42:19.014Z,60.61
2023-05-02T14:44:46.200Z,59.57
2023-05-02T14:47:13.213Z,59.12
2023-05-02T14:49:40.230Z,55.60
2023-05-02T14:52:07.287Z,54.38
2023-05-02T14:54:34.166Z,52.53
2023-05-02T14:57:02.172Z,49.86
2023-05-02T14:59:29.916Z,48.39
2023-05-02T15:01:57.336Z,45.33
2023-05-02T15:04:26.101Z,44.51
2023-05-02T15:06:54.457Z,46.20
2023-05-02T15:09:21.581Z,47.07
2023-05-02T15:11:48.507Z,48.77
2023-05-02T15:14:15.331Z,49.84
2023-05-02T15:16:42.238Z,51.96
2023-05-02T15:19:09.053Z,52.18
2023-05-02T15:21:36.185Z,52.98
2023-05-02T15:24:03.869Z,52.02
2023-05-02T15:26:30.979Z,53.36
2023-05-02T15:28:58.128Z,55.35
2023-05-02T15:31:25.201Z,56.81
2023-05-02T15:33:52.140Z,57.48
2023-05-02T15:36:19.006Z,56.59
2023-05-02T15:38:45.884Z,55.93
2023-05-02T15:41:12.757Z,55.42
2023-05-02T15:43:39.666Z,57.04
2023-05-02T15:46:06.595Z,59.90
2023-05-02T15:48:34.687Z,61.19
2023-05-02T15:51:03.058Z,60.87
2023-05-02T15:53:30.080Z,62.65
2023-05-02T15:55:57.121Z,62.51
2023-05-02T15:58:23.913Z,63.32
2023-05-02T16:00:52.352Z,65.00
2023-05-02T16:03:19.429Z,64.96
2023-05-02T16:05:46.551Z,63.71
2023-05-02T16:08:13.593Z,64.82
2023-05-02T16:10:42.746Z,66.67
2023-05-02T16:13:09.941Z,67.32
2023-05-02T16:15:36.838Z,67.17
2023-05-02T16:18:03.977Z,67.41
2023-05-02T16:20:33.917Z,68.06
2023-05-02T16:23:00.813Z,68.59
2023-05-02T16:25:27.870Z,69.34
2023-05-02T16:27:54.808Z,69.82
2023-05-02T16:30:21.908Z,69.26
2023-05-02T16:32:48.924Z,70.05
2023-05-02T16:35:15.935Z,69.92
2023-05-02T16:37:42.944Z,69.60
2023-05-02T16:40:11.089Z,69.31
2023-05-02T16:42:39.218Z,69.71
2023-05-02T16:45:07.471Z,69.82
2023-05-02T16:47:35.688Z,69.64
2023-05-02T16:50:03.423Z,69.38
2023-05-02T16:52:30.647Z,69.78
2023-05-02T16:54:57.522Z,69.68
2023-05-02T16:57:24.434Z,70.26
2023-05-02T16:59:52.526Z,70.44
2023-05-02T17:02:21.933Z,70.29
2023-05-02T17:04:50.060Z,70.36
2023-05-02T17:07:17.529Z,70.72
2023-05-02T17:09:44.744Z,70.53
2023-05-02T17:12:12.863Z,70.27
2023-05-02T17:14:42.465Z,71.33
2023-05-02T17:17:10.098Z,71.74
2023-05-02T17:19:37.227Z,72.51
2023-05-02T17:22:05.283Z,72.01
2023-05-02T17:24:33.092Z,71.78
2023-05-02T17:27:00.936Z,71.02
2023-05-02T17:29:27.972Z,70.47
2023-05-02T17:32:00.476Z,70.09
2023-05-02T17:34:30.158Z,70.20
2023-05-02T17:36:57.009Z,69.98
2023-05-02T17:39:23.894Z,70.30
2023-05-02T17:41:50.827Z,69.49
2023-05-02T17:44:17.704Z,70.59
2023-05-02T17:46:44.694Z,70.94
2023-05-02T17:49:11.627Z,71.50
2023-05-02T17:51:38.582Z,71.28
2023-05-02T17:54:05.634Z,71.24
2023-05-02T17:56:35.012Z,70.96
2023-05-02T17:59:01.885Z,71.14
2023-05-02T18:01:28.817Z,70.92
2023-05-02T18:03:55.844Z,71.75
2023-05-02T18:06:23.118Z,71.57
2023-05-02T18:08:50.005Z,71.91
2023-05-02T18:11:18.463Z,71.97
2023-05-02T18:13:46.157Z,72.27
2023-05-02T18:16:14.061Z,72.50
2023-05-02T18:18:41.730Z,72.33
2023-05-02T18:21:09.714Z,72.91
2023-05-02T18:23:36.679Z,72.94
2023-05-02T18:26:03.895Z,73.28
2023-05-02T18:28:30.920Z,73.48
2023-05-02T18:30:57.821Z,73.54
2023-05-02T18:33:24.738Z,73.57
2023-05-02T18:35:51.583Z,74.15
2023-05-02T18:38:19.591Z,74.37
2023-05-02T18:40:46.507Z,74.25
2023-05-02T18:43:13.446Z,74.26
2023-05-02T18:45:40.560Z,74.40
2023-05-02T18:48:07.495Z,74.52
2023-05-02T18:50:34.448Z,74.35
2023-05-02T18:53:01.262Z,74.34
2023-05-02T18:55:28.096Z,74.10
2023-05-02T18:57:55.088Z,74.06
2023-05-02T19:00:23.403Z,74.15
2023-05-02T19:02:53.426Z,74.28
2023-05-02T19:05:20.473Z,74.72
2023-05-02T19:07:47.467Z,75.07
2023-05-02T19:10:14.506Z,75.00
2023-05-02T19:12:42.027Z,75.09
2023-05-02T19:15:11.278Z,74.60
2023-05-02T19:17:38.210Z,74.58
2023-05-02T19:20:06.093Z,74.83
2023-05-02T19:22:34.662Z,74.23
2023-05-02T19:25:02.146Z,74.05
2023-05-02T19:27:29.459Z,74.29
2023-05-02T19:29:58.074Z,74.45
2023-05-02T19:32:25.376Z,74.46
2023-05-02T19:34:52.286Z,74.20
2023-05-02T19:37:19.156Z,74.25
2023-05-02T19:39:46.012Z,74.32
2023-05-02T19:42:12.816Z,74.42
2023-05-02T19:44:39.656Z,74.61
2023-05-02T19:47:06.515Z,74.45
2023-05-02T19:49:33.340Z,74.80
2023-05-02T19:52:00.901Z,74.69
2023-05-02T19:54:27.782Z,74.69
2023-05-02T19:56:54.636Z,74.56
2023-05-02T19:59:21.494Z,74.97
2023-05-02T20:01:48.585Z,74.35
2023-05-02T20:04:15.560Z,74.65
2023-05-02T20:06:43.139Z,74.91
2023-05-02T20:09:11.446Z,74.68
2023-05-02T20:11:38.358Z,74.90
2023-05-02T20:14:05.234Z,75.28
2023-05-02T20:16:32.739Z,75.20
2023-05-02T20:18:59.652Z,75.33
2023-05-02T20:21:26.951Z,74.98
2023-05-02T20:23:53.788Z,75.12
2023-05-02T20:26:21.304Z,75.03
2023-05-02T20:28:48.767Z,75.46
2023-05-02T20:31:16.931Z,75.08
2023-05-02T20:33:45.974Z,75.02
2023-05-02T20:36:14.822Z,75.33
2023-05-02T20:38:42.998Z,75.08
2023-05-02T20:41:14.644Z,74.98
2023-05-02T20:43:44.580Z,75.16
2023-05-02T20:46:14.050Z,75.17
2023-05-02T20:48:41.371Z,75.46
2023-05-02T20:51:08.578Z,75.22
2023-05-02T20:53:37.688Z,74.93
2023-05-02T20:56:04.846Z,74.66
2023-05-02T20:58:31.688Z,75.00
2023-05-02T21:00:58.900Z,74.88
2023-05-02T21:03:27.561Z,74.87
2023-05-02T21:05:56.448Z,74.86
2023-05-02T21:08:23.762Z,75.01
2023-05-02T21:10:51.371Z,74.80
2023-05-02T21:13:18.236Z,75.21
2023-05-02T21:15:45.206Z,74.89
2023-05-02T21:18:12.158Z,74.80
2023-05-02T21:20:41.393Z,75.17
2023-05-02T21:23:11.113Z,74.66
2023-05-02T21:25:38.536Z,75.21
2023-05-02T21:28:05.893Z,75.63
2023-05-02T21:30:32.991Z,75.67
2023-05-02T21:32:59.949Z,75.84
2023-05-02T21:35:27.421Z,75.60
2023-05-02T21:37:54.332Z,75.64
2023-05-02T21:40:21.281Z,75.27
2023-05-02T21:42:48.127Z,75.07
2023-05-02T21:45:15.096Z,75.11
2023-05-02T21:47:42.007Z,75.23
2023-05-02T21:50:09.124Z,75.42
2023-05-02T21:52:36.294Z,75.18
2023-05-02T21:55:03.424Z,74.79
2023-05-02T21:57:30.203Z,75.26
2023-05-02T21:59:57.050Z,75.41
2023-05-02T22:02:24.072Z,75.51
2023-05-02T22:04:51.054Z,75.18
2023-05-02T22:07:17.913Z,74.86
2023-05-02T22:09:44.829Z,74.94
2023-05-02T22:12:11.759Z,75.26
2023-05-02T22:14:45.013Z,75.36
2023-05-02T22:17:13.362Z,75.56
2023-05-02T22:19:40.500Z,75.27
2023-05-02T22:22:07.583Z,75.08
2023-05-02T22:24:34.513Z,74.18
2023-05-02T22:27:01.482Z,74.24
2023-05-02T22:29:28.479Z,74.37
2023-05-02T22:31:55.704Z,73.95
2023-05-02T22:34:23.077Z,74.55
2023-05-02T22:36:50.052Z,75.10
2023-05-02T22:39:16.959Z,75.21
2023-05-02T22:41:43.894Z,75.05
2023-05-02T22:44:11.557Z,75.48
2023-05-02T22:46:38.992Z,74.58
2023-05-02T22:49:11.785Z,74.43
2023-05-02T22:51:40.320Z,74.00
2023-05-02T22:54:08.018Z,73.71
2023-05-02T22:56:35.176Z,74.22
2023-05-02T22:59:02.048Z,74.65
2023-05-02T23:01:29.045Z,74.54
2023-05-02T23:03:56.218Z,74.66
2023-05-02T23:06:23.228Z,74.54
2023-05-02T23:08:50.722Z,75.01
2023-05-02T23:11:17.705Z,75.00
2023-05-02T23:13:44.483Z,74.98
2023-05-02T23:16:11.398Z,75.08
2023-05-02T23:18:38.238Z,75.26
2023-05-02T23:21:05.264Z,75.11
2023-05-02T23:23:32.204Z,74.80
2023-05-02T23:25:59.103Z,74.37
2023-05-02T23:28:26.545Z,74.53
2023-05-02T23:30:53.859Z,74.24
2023-05-02T23:33:21.069Z,74.54
2023-05-02T23:35:48.413Z,74.61
2023-05-02T23:38:15.547Z,74.74
2023-05-02T23:40:42.481Z,74.44
2023-05-02T23:43:09.860Z,74.46
2023-05-02T23:45:36.743Z,74.06
2023-05-02T23:48:03.693Z,74.25
2023-05-02T23:50:32.411Z,74.29
2023-05-02T23:52:59.209Z,74.32
2023-05-02T23:55:26.106Z,74.47
2023-05-02T23:57:52.971Z,74.61
